createdAt,value
2019-01-16T00:02:21.643Z,69.60
2019-01-16T00:05:08.500Z,69.63
2019-01-16T00:08:00.087Z,69.69
2019-01-16T00:10:55.754Z,69.70
2019-01-16T00:13:32.063Z,69.91
2019-01-16T00:16:20.259Z,69.87
2019-01-16T00:19:23.908Z,70.06
2019-01-16T00:22:10.440Z,70.16
2019-01-16T00:25:10.944Z,70.13
2019-01-16T00:28:02.313Z,70.22
2019-01-16T00:30:59.729Z,70.26
2019-01-16T00:33:39.570Z,70.29
2019-01-16T00:36:30.885Z,70.34
2019-01-16T00:39:18.000Z,70.37
2019-01-16T00:42:09.335Z,70.54
2019-01-16T00:44:57.703Z,70.57
2019-01-16T00:47:44.781Z,70.68
2019-01-16T00:50:33.638Z,70.69
2019-01-16T00:53:34.267Z,70.57
2019-01-16T00:56:24.485Z,70.67
2019-01-16T00:59:24.744Z,70.71
2019-01-16T01:02:11.527Z,70.77
2019-01-16T01:04:59.238Z,70.71
2019-01-16T01:07:50.627Z,70.88
2019-01-16T01:10:27.534Z,70.90
2019-01-16T01:13:18.891Z,70.98
2019-01-16T01:16:06.187Z,71.15
2019-01-16T01:18:49.496Z,71.21
2019-01-16T01:21:37.632Z,71.19
2019-01-16T01:24:24.857Z,71.24
2019-01-16T01:27:23.084Z,71.31
2019-01-16T01:30:04.002Z,71.22
2019-01-16T01:32:50.975Z,71.42
2019-01-16T01:35:45.400Z,71.47
2019-01-16T01:38:36.634Z,71.39
2019-01-16T01:41:28.443Z,71.38
2019-01-16T01:44:16.599Z,71.35
2019-01-16T01:47:20.343Z,71.37
2019-01-16T01:50:06.515Z,71.43
2019-01-16T01:53:13.607Z,71.44
2019-01-16T01:55:59.072Z,71.45
2019-01-16T01:58:34.911Z,71.40
2019-01-16T02:01:25.999Z,71.50
2019-01-16T02:04:25.282Z,71.56
2019-01-16T02:07:11.841Z,71.61
2019-01-16T02:10:09.827Z,71.58
2019-01-16T02:13:07.297Z,71.66
2019-01-16T02:16:01.886Z,71.62
2019-01-16T02:18:47.311Z,71.62
2019-01-16T02:21:23.490Z,71.71
2019-01-16T02:24:20.503Z,71.74
2019-01-16T02:27:11.602Z,71.90
2019-01-16T02:30:05.904Z,71.97
2019-01-16T02:32:54.284Z,71.95
2019-01-16T02:35:48.549Z,71.97
2019-01-16T02:38:35.900Z,72.12
2019-01-16T02:41:22.637Z,72.10
2019-01-16T02:44:09.923Z,72.24
2019-01-16T02:46:59.014Z,72.12
2019-01-16T02:49:50.508Z,72.15
2019-01-16T02:52:38.654Z,72.15
2019-01-16T02:55:25.974Z,72.17
2019-01-16T02:58:20.107Z,72.28
2019-01-16T03:01:02.559Z,72.26
2019-01-16T03:03:59.789Z,72.27
2019-01-16T03:06:50.883Z,72.29
2019-01-16T03:09:42.047Z,72.41
2019-01-16T03:12:29.219Z,72.42
2019-01-16T03:15:23.175Z,72.42
2019-01-16T03:18:03.629Z,72.50
2019-01-16T03:21:06.843Z,72.62
2019-01-16T03:23:58.214Z,72.69
2019-01-16T03:26:58.907Z,72.71
2019-01-16T03:29:45.986Z,72.83
2019-01-16T03:32:32.739Z,72.78
2019-01-16T03:35:19.726Z,72.86
2019-01-16T03:38:07.863Z,72.83
2019-01-16T03:40:54.817Z,72.76
2019-01-16T03:43:58.070Z,73.06
2019-01-16T03:46:46.409Z,73.01
2019-01-16T03:49:49.623Z,72.99
2019-01-16T03:52:26.157Z,73.00
2019-01-16T03:55:17.391Z,72.93
2019-01-16T03:58:04.239Z,73.08
2019-01-16T04:00:46.380Z,73.20
2019-01-16T04:03:29.191Z,73.28
2019-01-16T04:06:20.024Z,73.35
2019-01-16T04:09:14.607Z,73.37
2019-01-16T04:12:08.604Z,73.43
2019-01-16T04:15:03.006Z,73.42
2019-01-16T04:17:57.280Z,73.38
2019-01-16T04:20:40.359Z,73.42
2019-01-16T04:23:28.508Z,73.46
2019-01-16T04:26:09.268Z,73.47
2019-01-16T04:29:08.920Z,73.57
2019-01-16T04:31:55.743Z,73.57
2019-01-16T04:34:59.505Z,73.52
2019-01-16T04:38:02.569Z,73.73
2019-01-16T04:40:58.384Z,73.80
2019-01-16T04:43:52.443Z,73.66
2019-01-16T04:46:43.602Z,73.66
2019-01-16T04:49:37.667Z,73.80
2019-01-16T04:52:25.005Z,73.81
2019-01-16T04:55:24.555Z,73.87
2019-01-16T04:58:18.801Z,73.96
2019-01-16T05:01:06.097Z,73.90
2019-01-16T05:03:52.898Z,73.90
2019-01-16T05:06:34.911Z,73.94
2019-01-16T05:09:20.713Z,73.95
2019-01-16T05:12:18.158Z,74.18
2019-01-16T05:15:09.461Z,74.36
2019-01-16T05:18:06.502Z,74.33
2019-01-16T05:20:53.705Z,74.33
2019-01-16T05:23:50.763Z,74.41
2019-01-16T05:26:39.082Z,74.40
2019-01-16T05:29:31.807Z,74.44
2019-01-16T05:32:23.842Z,74.48
2019-01-16T05:35:12.048Z,74.64
2019-01-16T05:38:03.609Z,74.62
2019-01-16T05:40:50.417Z,74.72
2019-01-16T05:43:38.763Z,74.87
2019-01-16T05:46:23.257Z,75.03
2019-01-16T05:49:11.484Z,75.27
2019-01-16T05:52:05.762Z,75.18
2019-01-16T05:54:54.220Z,75.35
2019-01-16T05:57:41.226Z,75.32
2019-01-16T06:00:31.521Z,75.35
2019-01-16T06:03:16.025Z,75.31
2019-01-16T06:05:58.674Z,75.36
2019-01-16T06:08:46.866Z,75.41
2019-01-16T06:11:33.462Z,75.37
2019-01-16T06:14:24.559Z,75.51
2019-01-16T06:17:02.027Z,75.65
2019-01-16T06:20:08.503Z,75.67
2019-01-16T06:22:55.622Z,75.68
2019-01-16T06:25:55.920Z,75.57
2019-01-16T06:28:43.807Z,75.67
2019-01-16T06:31:38.383Z,75.77
2019-01-16T06:34:39.487Z,75.96
2019-01-16T06:37:26.152Z,75.99
2019-01-16T06:40:13.147Z,75.89
2019-01-16T06:43:01.330Z,75.85
2019-01-16T06:46:07.724Z,75.87
2019-01-16T06:49:04.586Z,75.99
2019-01-16T06:51:52.898Z,75.90
2019-01-16T06:54:38.481Z,75.97
2019-01-16T06:57:35.710Z,76.24
2019-01-16T07:00:25.507Z,76.22
2019-01-16T07:03:13.695Z,76.22
2019-01-16T07:05:58.818Z,76.25
2019-01-16T07:08:53.418Z,76.28
2019-01-16T07:11:31.717Z,76.28
2019-01-16T07:14:35.179Z,76.44
2019-01-16T07:17:38.748Z,76.71
2019-01-16T07:20:28.625Z,76.71
2019-01-16T07:23:14.793Z,76.77
2019-01-16T07:26:09.212Z,76.71
2019-01-16T07:29:09.664Z,76.79
2019-01-16T07:32:07.137Z,76.74
2019-01-16T07:34:52.389Z,76.83
2019-01-16T07:37:46.698Z,76.88
2019-01-16T07:40:30.084Z,77.12
2019-01-16T07:43:24.177Z,77.35
2019-01-16T07:46:18.584Z,77.47
2019-01-16T07:49:05.838Z,77.54
2019-01-16T07:51:43.047Z,77.51
2019-01-16T07:54:43.262Z,77.64
2019-01-16T07:57:24.435Z,77.73
2019-01-16T08:00:13.151Z,77.77
2019-01-16T08:03:10.488Z,77.79
2019-01-16T08:05:57.731Z,77.92
2019-01-16T08:08:49.095Z,78.04
2019-01-16T08:11:46.817Z,77.97
2019-01-16T08:14:47.369Z,78.03
2019-01-16T08:17:24.114Z,78.02
2019-01-16T08:20:25.013Z,78.08
2019-01-16T08:23:10.636Z,78.16
2019-01-16T08:25:58.809Z,78.13
2019-01-16T08:28:45.738Z,78.17
2019-01-16T08:31:26.099Z,78.31
2019-01-16T08:34:13.382Z,78.28
2019-01-16T08:36:58.421Z,78.34
2019-01-16T08:39:58.790Z,78.32
2019-01-16T08:42:56.268Z,78.43
2019-01-16T08:45:48.345Z,78.78
2019-01-16T08:48:33.208Z,78.87
2019-01-16T08:51:19.942Z,78.89
2019-01-16T08:54:14.002Z,78.86
2019-01-16T08:57:02.255Z,78.86
2019-01-16T08:59:56.532Z,78.84
2019-01-16T09:02:54.330Z,78.78
2019-01-16T09:05:56.979Z,78.81
2019-01-16T09:08:44.032Z,78.69
2019-01-16T09:11:29.737Z,78.52
2019-01-16T09:14:17.127Z,78.44
2019-01-16T09:17:14.340Z,78.33
2019-01-16T09:20:02.611Z,78.33
2019-01-16T09:22:52.775Z,78.26
2019-01-16T09:25:53.350Z,78.25
2019-01-16T09:28:50.497Z,78.16
2019-01-16T09:31:37.826Z,78.13
2019-01-16T09:34:17.705Z,78.07
2019-01-16T09:36:58.548Z,77.92
2019-01-16T09:39:53.458Z,77.79
2019-01-16T09:42:45.484Z,77.69
2019-01-16T09:45:27.318Z,77.57
2019-01-16T09:48:15.545Z,77.46
2019-01-16T09:51:02.695Z,77.36
2019-01-16T09:54:09.300Z,77.24
2019-01-16T09:56:53.804Z,77.14
2019-01-16T09:59:40.572Z,77.01
2019-01-16T10:02:31.623Z,76.87
2019-01-16T10:05:14.858Z,76.70
2019-01-16T10:08:05.909Z,76.57
2019-01-16T10:10:54.465Z,76.41
2019-01-16T10:14:01.074Z,76.28
2019-01-16T10:17:07.923Z,76.13
2019-01-16T10:20:14.567Z,75.93
2019-01-16T10:22:59.050Z,75.74
2019-01-16T10:25:42.966Z,75.58
2019-01-16T10:28:37.659Z,75.47
2019-01-16T10:31:41.144Z,75.56
2019-01-16T10:34:28.402Z,75.40
2019-01-16T10:37:07.391Z,75.29
2019-01-16T10:40:03.877Z,75.02
2019-01-16T10:42:43.792Z,74.77
2019-01-16T10:45:31.049Z,74.31
2019-01-16T10:48:19.231Z,74.29
2019-01-16T10:51:13.579Z,74.16
2019-01-16T10:54:17.122Z,74.30
2019-01-16T10:57:03.988Z,74.26
2019-01-16T11:00:00.047Z,73.97
2019-01-16T11:02:41.715Z,73.78
2019-01-16T11:05:33.286Z,73.48
2019-01-16T11:08:27.932Z,73.34
2019-01-16T11:11:16.285Z,73.17
2019-01-16T11:14:10.964Z,73.08
2019-01-16T11:16:59.365Z,72.89
2019-01-16T11:19:50.622Z,72.74
2019-01-16T11:22:56.852Z,72.62
2019-01-16T11:25:43.425Z,72.29
2019-01-16T11:28:40.440Z,72.12
2019-01-16T11:31:25.522Z,72.07
2019-01-16T11:34:07.777Z,71.99
2019-01-16T11:36:55.039Z,71.77
2019-01-16T11:39:43.723Z,71.66
2019-01-16T11:42:37.946Z,71.61
2019-01-16T11:45:29.411Z,71.71
2019-01-16T11:48:18.776Z,71.36
2019-01-16T11:51:09.327Z,71.21
2019-01-16T11:53:48.706Z,71.00
2019-01-16T11:56:31.046Z,70.99
2019-01-16T11:59:23.553Z,70.94
2019-01-16T12:02:20.964Z,70.93
2019-01-16T12:05:21.938Z,70.91
2019-01-16T12:08:10.468Z,70.87
2019-01-16T12:11:11.013Z,70.75
2019-01-16T12:14:05.347Z,70.81
2019-01-16T12:16:45.377Z,70.90
2019-01-16T12:19:49.071Z,70.93
2019-01-16T12:22:34.666Z,70.98
2019-01-16T12:25:13.335Z,71.10
2019-01-16T12:28:01.295Z,71.23
2019-01-16T12:30:48.403Z,71.37
2019-01-16T12:33:44.053Z,71.35
2019-01-16T12:36:32.245Z,71.39
2019-01-16T12:39:31.188Z,71.46
2019-01-16T12:42:22.487Z,71.58
2019-01-16T12:45:09.524Z,71.63
2019-01-16T12:48:03.842Z,71.72
2019-01-16T12:51:07.414Z,71.72
2019-01-16T12:53:54.057Z,71.80
2019-01-16T12:56:54.237Z,71.91
2019-01-16T12:59:57.506Z,71.97
2019-01-16T13:02:44.348Z,72.13
2019-01-16T13:05:38.643Z,72.23
2019-01-16T13:08:32.744Z,72.32
2019-01-16T13:11:25.829Z,72.46
2019-01-16T13:14:17.188Z,72.67
2019-01-16T13:17:04.131Z,72.85
2019-01-16T13:19:58.593Z,73.07
2019-01-16T13:22:48.892Z,73.29
2019-01-16T13:25:35.712Z,73.50
2019-01-16T13:28:33.922Z,73.81
2019-01-16T13:31:42.019Z,74.04
2019-01-16T13:34:39.216Z,74.22
2019-01-16T13:37:36.555Z,74.38
2019-01-16T13:40:26.152Z,74.58
2019-01-16T13:43:12.980Z,74.87
2019-01-16T13:46:07.267Z,74.99
2019-01-16T13:48:52.860Z,75.23
2019-01-16T13:51:50.041Z,75.44
2019-01-16T13:54:39.091Z,75.75
2019-01-16T13:57:30.105Z,75.92
2019-01-16T14:00:17.092Z,76.13
2019-01-16T14:03:07.719Z,76.35
2019-01-16T14:06:08.213Z,76.57
2019-01-16T14:09:02.374Z,76.73
2019-01-16T14:11:51.389Z,76.87
2019-01-16T14:14:37.955Z,77.00
2019-01-16T14:17:26.498Z,77.14
2019-01-16T14:20:21.020Z,77.39
2019-01-16T14:23:08.053Z,77.54
2019-01-16T14:26:11.688Z,77.71
2019-01-16T14:29:11.527Z,77.87
2019-01-16T14:31:58.995Z,77.91
2019-01-16T14:34:45.996Z,78.06
2019-01-16T14:37:46.417Z,78.26
2019-01-16T14:40:38.245Z,78.36
2019-01-16T14:43:32.854Z,78.40
2019-01-16T14:46:36.131Z,78.60
2019-01-16T14:49:24.722Z,78.77
2019-01-16T14:52:03.717Z,78.86
2019-01-16T14:54:55.797Z,78.96
2019-01-16T14:57:47.270Z,79.22
2019-01-16T15:00:30.751Z,79.28
2019-01-16T15:03:16.265Z,79.39
2019-01-16T15:06:16.463Z,79.55
2019-01-16T15:09:03.521Z,79.65
2019-01-16T15:12:00.686Z,79.70
2019-01-16T15:14:40.619Z,79.80
2019-01-16T15:17:30.053Z,79.89
2019-01-16T15:20:21.867Z,80.09
2019-01-16T15:23:15.824Z,80.20
2019-01-16T15:26:07.113Z,80.35
2019-01-16T15:29:04.377Z,80.37
2019-01-16T15:31:51.625Z,80.54
2019-01-16T15:34:48.846Z,80.69
2019-01-16T15:37:35.972Z,80.85
2019-01-16T15:40:37.771Z,80.89
2019-01-16T15:43:23.511Z,81.09
2019-01-16T15:46:13.529Z,81.10
2019-01-16T15:48:58.786Z,81.17
2019-01-16T15:51:45.887Z,81.42
2019-01-16T15:54:37.395Z,81.60
2019-01-16T15:57:24.552Z,81.67
2019-01-16T16:00:15.733Z,81.81
2019-01-16T16:03:02.253Z,81.92
2019-01-16T16:05:53.770Z,81.94
2019-01-16T16:08:40.878Z,81.99
2019-01-16T16:11:35.072Z,82.01
2019-01-16T16:14:16.719Z,82.10
2019-01-16T16:17:08.169Z,82.19
2019-01-16T16:19:54.894Z,82.35
2019-01-16T16:22:46.355Z,82.43
2019-01-16T16:25:33.648Z,82.62
2019-01-16T16:28:34.765Z,82.55
2019-01-16T16:31:26.036Z,82.52
2019-01-16T16:34:29.292Z,82.55
2019-01-16T16:37:16.241Z,82.64
2019-01-16T16:40:13.725Z,82.65
2019-01-16T16:43:08.061Z,82.98
2019-01-16T16:45:55.173Z,82.83
2019-01-16T16:48:38.630Z,82.92
2019-01-16T16:51:25.548Z,82.98
2019-01-16T16:54:13.755Z,82.91
2019-01-16T16:57:17.209Z,82.93
2019-01-16T17:00:03.793Z,83.20
2019-01-16T17:02:52.029Z,83.40
2019-01-16T17:05:38.878Z,83.44
2019-01-16T17:08:30.218Z,83.23
2019-01-16T17:11:21.589Z,83.20
2019-01-16T17:14:08.652Z,83.37
2019-01-16T17:16:55.695Z,83.27
2019-01-16T17:19:33.975Z,83.27
2019-01-16T17:22:21.131Z,83.36
2019-01-16T17:25:09.405Z,83.52
2019-01-16T17:28:00.677Z,83.46
2019-01-16T17:30:47.656Z,83.48
2019-01-16T17:33:38.677Z,83.59
2019-01-16T17:36:33.577Z,83.54
2019-01-16T17:39:20.674Z,83.57
2019-01-16T17:42:17.829Z,83.53
2019-01-16T17:45:04.917Z,83.64
2019-01-16T17:47:59.981Z,83.64
2019-01-16T17:50:47.026Z,83.68
2019-01-16T17:53:35.436Z,83.75
2019-01-16T17:56:30.411Z,83.77
2019-01-16T17:59:37.237Z,83.86
2019-01-16T18:02:37.786Z,83.95
2019-01-16T18:05:29.046Z,83.93
2019-01-16T18:08:09.148Z,83.92
2019-01-16T18:11:00.350Z,84.01
2019-01-16T18:14:00.954Z,84.13
2019-01-16T18:17:04.570Z,84.19
2019-01-16T18:19:51.808Z,84.22
2019-01-16T18:22:45.197Z,84.26
2019-01-16T18:25:34.879Z,84.26
2019-01-16T18:28:19.297Z,84.37
2019-01-16T18:31:16.704Z,83.99
2019-01-16T18:34:11.037Z,84.63
2019-01-16T18:37:17.345Z,84.79
2019-01-16T18:40:11.995Z,85.79
2019-01-16T18:43:00.203Z,85.14
2019-01-16T18:45:41.791Z,85.38
2019-01-16T18:48:24.906Z,85.44
2019-01-16T18:51:11.859Z,85.66
2019-01-16T18:53:58.690Z,86.32
2019-01-16T18:56:49.843Z,86.28
2019-01-16T18:59:38.738Z,86.25
2019-01-16T19:02:29.781Z,86.54
2019-01-16T19:05:18.062Z,86.79
2019-01-16T19:08:21.492Z,86.60
2019-01-16T19:11:08.788Z,87.17
2019-01-16T19:14:09.203Z,87.80
2019-01-16T19:17:15.494Z,88.02
2019-01-16T19:19:57.013Z,88.02
2019-01-16T19:22:58.063Z,88.21
2019-01-16T19:25:58.888Z,88.11
2019-01-16T19:28:52.192Z,88.30
2019-01-16T19:31:39.168Z,88.20
2019-01-16T19:34:33.543Z,88.28
2019-01-16T19:37:23.230Z,88.37
2019-01-16T19:40:13.676Z,88.34
2019-01-16T19:43:14.047Z,88.29
2019-01-16T19:45:59.919Z,88.79
2019-01-16T19:48:47.873Z,88.87
2019-01-16T19:51:34.846Z,88.90
2019-01-16T19:54:32.224Z,88.89
2019-01-16T19:57:18.200Z,88.75
2019-01-16T20:00:14.159Z,88.56
2019-01-16T20:03:00.226Z,88.58
2019-01-16T20:06:00.533Z,88.74
2019-01-16T20:08:48.701Z,88.76
2019-01-16T20:11:45.976Z,88.75
2019-01-16T20:14:31.795Z,88.93
2019-01-16T20:17:14.079Z,88.87
2019-01-16T20:20:02.903Z,88.82
2019-01-16T20:22:45.640Z,88.97
2019-01-16T20:25:49.555Z,89.28
2019-01-16T20:28:41.583Z,89.18
2019-01-16T20:31:40.520Z,89.32
2019-01-16T20:34:29.132Z,89.74
2019-01-16T20:37:23.541Z,89.99
2019-01-16T20:40:20.979Z,90.12
2019-01-16T20:43:09.715Z,90.25
2019-01-16T20:45:52.053Z,90.34
2019-01-16T20:48:29.979Z,90.44
2019-01-16T20:51:16.855Z,90.47
2019-01-16T20:53:58.477Z,90.53
2019-01-16T20:56:36.446Z,90.51
2019-01-16T20:59:25.464Z,90.62
2019-01-16T21:02:06.376Z,90.52
2019-01-16T21:05:09.231Z,90.49
2019-01-16T21:07:56.808Z,90.42
2019-01-16T21:10:37.095Z,90.36
2019-01-16T21:13:25.333Z,90.38
2019-01-16T21:16:03.188Z,90.36
2019-01-16T21:19:09.681Z,90.35
2019-01-16T21:22:03.784Z,90.31
2019-01-16T21:24:55.164Z,90.17
2019-01-16T21:27:49.289Z,90.14
2019-01-16T21:30:39.436Z,90.10
2019-01-16T21:33:42.979Z,90.04
2019-01-16T21:36:37.325Z,89.99
2019-01-16T21:39:41.091Z,89.96
2019-01-16T21:42:36.087Z,89.93
2019-01-16T21:45:26.587Z,89.89
2019-01-16T21:48:20.530Z,89.85
2019-01-16T21:51:11.521Z,89.82
2019-01-16T21:53:50.717Z,89.80
2019-01-16T21:56:34.047Z,89.75
2019-01-16T21:59:25.810Z,89.78
2019-01-16T22:02:17.145Z,89.76
2019-01-16T22:05:05.573Z,89.71
2019-01-16T22:07:42.632Z,89.65
2019-01-16T22:10:31.214Z,89.64
2019-01-16T22:13:26.272Z,89.64
2019-01-16T22:16:19.994Z,89.58
2019-01-16T22:19:02.968Z,89.54
2019-01-16T22:21:44.892Z,89.46
2019-01-16T22:24:21.833Z,89.46
2019-01-16T22:27:08.992Z,89.46
2019-01-16T22:29:58.941Z,89.47
2019-01-16T22:32:53.040Z,89.44
2019-01-16T22:35:34.301Z,89.38
2019-01-16T22:38:41.022Z,89.33
2019-01-16T22:41:28.301Z,89.36
2019-01-16T22:44:13.200Z,89.40
2019-01-16T22:47:00.451Z,89.36
2019-01-16T22:49:57.953Z,89.43
2019-01-16T22:52:38.587Z,89.39
2019-01-16T22:55:29.051Z,89.39
2019-01-16T22:58:16.026Z,89.36
2019-01-16T23:01:05.944Z,89.35
2019-01-16T23:03:49.823Z,89.24
2019-01-16T23:06:33.734Z,89.17
2019-01-16T23:09:20.494Z,89.21
2019-01-16T23:12:14.587Z,89.17
2019-01-16T23:15:05.798Z,89.11
2019-01-16T23:17:52.953Z,89.02
2019-01-16T23:20:48.602Z,89.00
2019-01-16T23:23:35.589Z,88.95
2019-01-16T23:26:26.645Z,88.88
2019-01-16T23:29:21.089Z,88.82
2019-01-16T23:31:58.668Z,88.85
2019-01-16T23:34:56.959Z,88.90
2019-01-16T23:37:38.374Z,88.96
2019-01-16T23:40:27.937Z,88.97
2019-01-16T23:43:22.396Z,89.02
2019-01-16T23:46:10.750Z,88.99
2019-01-16T23:49:14.274Z,89.01
2019-01-16T23:52:04.248Z,89.01
2019-01-16T23:54:58.311Z,88.99
2019-01-16T23:57:44.130Z,89.03
